Siam Fortune — 3FAN — position and weather

sailwx.info

Track history (hours):
 
Tides and Currents Weather Stations Pressure Air Temp Water Temp Dewpoint Dewpoint Depression Visibility Wind Speed Wind Dir Waves Ship Positions

Siam Fortune

Last reported at 2017-Oct-04 14:26 UTC. Time now 2017-Oct-20 18:28 UTC.
Position N 34°35' E 134°51'.
Warning: this ship's position is 16 days out of date.

Length 116 m; draft 7.5 m.

Type: Cargo ship. MMSI: 355774000.

Date/timePositionNaut miles runAvg speedWind from/ knotsBaromVisibWave heightAir tempDewpointWater temp
2017-Oct-04 14:26N 34°35' E 134°51'611.8
2017-Oct-04 13:57N 34°37' E 134°57'510.9
2017-Oct-04 13:30N 34°36' E 135°03'610.5
2017-Oct-04 12:58N 34°31' E 135°04'612.6
2017-Oct-04 12:29N 34°25' E 135°03'812.3
2017-Oct-04 11:51N 34°18' E 134°59'412.7
2017-Oct-04 11:30N 34°13' E 134°59'612.2
2017-Oct-04 11:00N 34°07' E 134°60'611.3
2017-Oct-04 10:29N 34°01' E 134°59'  
2017-Sep-26 10:08N 34°07' E 134°57'212.3
2017-Sep-26 10:00N 34°09' E 134°58'713.5
2017-Sep-26 09:30N 34°15' E 134°58'1212.7
2017-Sep-26 08:33N 34°27' E 135°02'112.3
2017-Sep-26 08:30N 34°28' E 135°02'612.5
2017-Sep-26 08:00N 34°34' E 135°04'611.3
2017-Sep-26 07:30N 34°37' E 134°58'8 0.3
2017-Sep-25 00:54N 34°41' E 134°50'3 4.8
2017-Sep-25 00:12N 34°41' E 134°46'0 0.1
2017-Sep-25 00:00N 34°41' E 134°46'0 0.0
2017-Sep-24 22:36N 34°41' E 134°46'0 0.0
2017-Sep-24 22:30N 34°41' E 134°46'0 0.1
2017-Sep-24 22:00N 34°41' E 134°46'0 0.0
2017-Sep-24 21:30N 34°41' E 134°46'0 0.0
2017-Sep-24 20:54N 34°41' E 134°46'0 0.0
2017-Sep-24 20:12N 34°41' E 134°46'0 0.0
2017-Sep-24 20:00N 34°41' E 134°46'0 0.0
2017-Sep-24 17:18N 34°41' E 134°46'0 0.1
2017-Sep-24 16:06N 34°41' E 134°46'0 0.0
2017-Sep-24 15:54N 34°41' E 134°46'0 0.0
2017-Sep-24 15:30N 34°41' E 134°46'0 0.0
2017-Sep-24 14:30N 34°41' E 134°46'  
Track history (hours):
 
Tides and Currents Weather Stations Pressure Air Temp Water Temp Dewpoint Dewpoint Depression Visibility Wind Speed Wind Dir Waves Ship Positions

Siam Fortune

Last reported at 2017-Oct-04 14:26 UTC. Time now 2017-Oct-20 18:28 UTC.
Position N 34°35' E 134°51'.
Warning: this ship's position is 16 days out of date.

Length 116 m; draft 7.5 m.

Type: Cargo ship. MMSI: 355774000.

Date/timePositionNaut miles runAvg speedWind from/ knotsBaromVisibWave heightAir tempDewpointWater temp
2017-Oct-04 14:26N 34°35' E 134°51'611.8
2017-Oct-04 13:57N 34°37' E 134°57'510.9
2017-Oct-04 13:30N 34°36' E 135°03'610.5
2017-Oct-04 12:58N 34°31' E 135°04'612.6
2017-Oct-04 12:29N 34°25' E 135°03'812.3
2017-Oct-04 11:51N 34°18' E 134°59'412.7
2017-Oct-04 11:30N 34°13' E 134°59'612.2
2017-Oct-04 11:00N 34°07' E 134°60'611.3
2017-Oct-04 10:29N 34°01' E 134°59'  
2017-Sep-26 10:08N 34°07' E 134°57'212.3
2017-Sep-26 10:00N 34°09' E 134°58'713.5
2017-Sep-26 09:30N 34°15' E 134°58'1212.7
2017-Sep-26 08:33N 34°27' E 135°02'112.3
2017-Sep-26 08:30N 34°28' E 135°02'612.5
2017-Sep-26 08:00N 34°34' E 135°04'611.3
2017-Sep-26 07:30N 34°37' E 134°58'8 0.3
2017-Sep-25 00:54N 34°41' E 134°50'3 4.8
2017-Sep-25 00:12N 34°41' E 134°46'0 0.1
2017-Sep-25 00:00N 34°41' E 134°46'0 0.0
2017-Sep-24 22:36N 34°41' E 134°46'0 0.0
2017-Sep-24 22:30N 34°41' E 134°46'0 0.1
2017-Sep-24 22:00N 34°41' E 134°46'0 0.0
2017-Sep-24 21:30N 34°41' E 134°46'0 0.0
2017-Sep-24 20:54N 34°41' E 134°46'0 0.0
2017-Sep-24 20:12N 34°41' E 134°46'0 0.0
2017-Sep-24 20:00N 34°41' E 134°46'0 0.0
2017-Sep-24 17:18N 34°41' E 134°46'0 0.1
2017-Sep-24 16:06N 34°41' E 134°46'0 0.0
2017-Sep-24 15:54N 34°41' E 134°46'0 0.0
2017-Sep-24 15:30N 34°41' E 134°46'0 0.0
2017-Sep-24 14:30N 34°41' E 134°46'  

Dump ship's entire track history